M/T Vemaoil Xi — 9HWD7 — position and weather

sailwx.info

Track history (hours):
 
Tides and Currents Weather Stations Pressure Air Temp Water Temp Dewpoint Dewpoint Depression Visibility Wind Speed Wind Dir Waves Ship Positions

M/T Vemaoil Xi

Last reported at 2017-Jan-20 05:11 UTC. Time now 2017-Jan-20 05:55 UTC.
Position N 35°51' E 014°36'.

Length 105 m; draft 6 m.

Type: Tanker. MMSI: 215631000.

Date/timePositionNaut miles runAvg speedWind from/ knotsBaromVisibWave heightAir tempDewpointWater temp
2017-Jan-20 05:11N 35°51' E 014°36'0 0.0
2017-Jan-20 04:33N 35°51' E 014°36'0 0.0
2017-Jan-20 03:33N 35°51' E 014°36'0 0.0
2017-Jan-20 02:11N 35°51' E 014°36'0 0.0
2017-Jan-19 22:27N 35°50' E 014°36'0 0.0
2017-Jan-19 21:33N 35°50' E 014°36'1 0.8
2017-Jan-19 20:32N 35°51' E 014°36'5 0.4
2017-Jan-19 07:29N 35°54' E 014°31'4 3.9
2017-Jan-19 06:33N 35°58' E 014°30'6 6.0
2017-Jan-19 05:33N 35°60' E 014°24'0 0.0
2017-Jan-19 04:33N 35°60' E 014°24'0 0.1
2017-Jan-19 03:33N 35°60' E 014°24'0 0.0
2017-Jan-19 02:33N 35°60' E 014°24'0 0.1
2017-Jan-19 01:33N 35°60' E 014°24'0 0.0
2017-Jan-19 00:33N 35°60' E 014°24'0 0.1
2017-Jan-18 23:33N 35°60' E 014°24'0 0.0
2017-Jan-18 22:33N 35°60' E 014°24'2 1.6
2017-Jan-18 21:33N 36°00' E 014°26'0 0.0
2017-Jan-18 20:33N 36°00' E 014°26'0 0.0
2017-Jan-18 19:33N 36°00' E 014°26'0 0.0
2017-Jan-18 18:33N 36°00' E 014°26'0 0.0
2017-Jan-18 17:33N 36°00' E 014°26'0 0.0
2017-Jan-18 16:33N 36°00' E 014°26'0 0.0
2017-Jan-18 15:33N 36°00' E 014°26'0 0.0
2017-Jan-18 14:33N 36°00' E 014°26'1 1.4
2017-Jan-18 13:33N 35°60' E 014°24'0 0.0
2017-Jan-18 12:33N 35°60' E 014°24'0 0.0
2017-Jan-18 11:33N 35°60' E 014°24'0 0.0
2017-Jan-18 10:33N 35°60' E 014°24'0 0.0
2017-Jan-18 09:33N 35°60' E 014°24'0 0.0
2017-Jan-18 08:29N 35°60' E 014°24'0 0.0
2017-Jan-18 07:33N 35°60' E 014°24'1 1.5
2017-Jan-18 06:33N 36°01' E 014°25'0 0.0
2017-Jan-18 05:33N 36°01' E 014°25'0 0.0
2017-Jan-18 04:33N 36°01' E 014°25'0 0.0
2017-Jan-18 03:33N 36°01' E 014°25'0 0.0
2017-Jan-18 02:33N 36°01' E 014°25'0 0.0
2017-Jan-18 01:33N 36°01' E 014°25'0 0.0
2017-Jan-18 00:33N 36°01' E 014°25'0 0.0
2017-Jan-17 23:33N 36°01' E 014°25'0 0.0
2017-Jan-17 22:33N 36°01' E 014°25'0 0.0
2017-Jan-17 21:33N 36°01' E 014°25'0 0.1
2017-Jan-17 20:33N 36°01' E 014°25'4 4.2
2017-Jan-17 19:33N 35°59' E 014°29'5 0.4
2017-Jan-17 07:33N 35°54' E 014°33'5 5.4
2017-Jan-17 06:33N 35°59' E 014°28'3 3.0
2017-Jan-17 05:33N 36°00' E 014°26'0 0.0
2017-Jan-17 04:33N 36°00' E 014°26'0 0.0
2017-Jan-17 03:33N 36°00' E 014°26'0 0.5
2017-Jan-17 02:33N 36°01' E 014°25'0 0.0
2017-Jan-17 01:33N 36°01' E 014°25'0 0.0
2017-Jan-17 00:33N 36°01' E 014°25'0 0.0
2017-Jan-16 23:33N 36°01' E 014°25'0 0.1
2017-Jan-16 22:33N 36°01' E 014°25'0 0.0
2017-Jan-16 21:33N 36°01' E 014°25'0 0.0
2017-Jan-16 20:33N 36°01' E 014°25'4 4.3
2017-Jan-16 19:33N 35°58' E 014°30'5 5.2
2017-Jan-16 18:33N 35°55' E 014°35'5 5.3
2017-Jan-16 17:33N 35°50' E 014°36'0 0.0
2017-Jan-15 23:33N 35°49' E 014°35'0 0.0
2017-Jan-15 22:33N 35°49' E 014°35'1 1.1
2017-Jan-15 21:25N 35°51' E 014°36'0 0.0
2017-Jan-15 19:07N 35°51' E 014°36'0 0.0
2017-Jan-15 18:33N 35°51' E 014°36'0 0.0
2017-Jan-15 17:32N 35°51' E 014°36'0 0.0
2017-Jan-15 16:33N 35°51' E 014°36'0 0.0
2017-Jan-15 15:33N 35°51' E 014°36'0 0.0
2017-Jan-15 14:33N 35°51' E 014°36'0 0.1
2017-Jan-15 13:33N 35°51' E 014°36'0 0.0
2017-Jan-15 12:28N 35°51' E 014°36'2 2.6
2017-Jan-15 11:32N 35°52' E 014°39'0 0.1
2017-Jan-15 10:33N 35°52' E 014°39'0 0.0
2017-Jan-15 09:33N 35°52' E 014°39'6 0.8
2017-Jan-15 02:30N 35°49' E 014°32'3 0.7
2017-Jan-14 22:18N 35°50' E 014°36'1 0.8
2017-Jan-14 21:25N 35°50' E 014°36'0 0.0
2017-Jan-14 20:14N 35°50' E 014°36'0 0.0
2017-Jan-14 19:27N 35°50' E 014°36'0 0.0
2017-Jan-14 18:11N 35°50' E 014°36'0 0.0
2017-Jan-14 17:26N 35°50' E 014°36'0 0.0
2017-Jan-14 16:30N 35°50' E 014°36'0 0.0
2017-Jan-14 15:30N 35°50' E 014°36'0 0.0
2017-Jan-14 14:33N 35°50' E 014°36'0 0.0
2017-Jan-14 13:31N 35°50' E 014°36'0 0.0
2017-Jan-14 12:29N 35°50' E 014°36'3 0.2
2017-Jan-13 21:05N 35°49' E 014°33'3 3.8
2017-Jan-13 20:21N 35°49' E 014°36'4 5.2
2017-Jan-13 19:30N 35°51' E 014°41'5 5.0
2017-Jan-13 18:33N 35°53' E 014°47'1 1.4
2017-Jan-13 17:33N 35°54' E 014°48'0 0.0
2017-Jan-13 16:33N 35°54' E 014°48'0 0.0
2017-Jan-13 15:33N 35°54' E 014°48'0 0.0
2017-Jan-13 14:24N 35°54' E 014°48'0 0.0
2017-Jan-13 13:33N 35°54' E 014°48'0 0.0
2017-Jan-13 12:26N 35°54' E 014°48'0 0.1
2017-Jan-13 11:32N 35°54' E 014°48'6 5.9
2017-Jan-13 10:33N 35°56' E 014°42'7 7.2
2017-Jan-13 09:33N 35°59' E 014°34'6 5.9
2017-Jan-13 08:33N 35°59' E 014°26'0 0.1
2017-Jan-13 07:33N 35°59' E 014°26'0 0.0
2017-Jan-13 06:33N 35°59' E 014°26'0 0.0
2017-Jan-13 05:33N 35°59' E 014°26'0 0.1
2017-Jan-13 04:33N 35°59' E 014°26'0 0.0
2017-Jan-13 03:33N 35°59' E 014°26'0 0.0
2017-Jan-13 02:33N 35°59' E 014°26'1 0.8
2017-Jan-13 01:33N 35°59' E 014°27'6 6.1
2017-Jan-13 00:33N 35°56' E 014°34'6 5.7
2017-Jan-12 23:33N 35°50' E 014°36'1 1.0
2017-Jan-12 22:05N 35°49' E 014°35'0 0.0
2017-Jan-12 21:33N 35°49' E 014°35'0 0.0
2017-Jan-12 19:28N 35°49' E 014°35'2 0.7
2017-Jan-12 16:27N 35°49' E 014°32'0 0.4
2017-Jan-12 15:33N 35°49' E 014°33'0 0.0
2017-Jan-12 13:31N 35°49' E 014°33'0 0.0
2017-Jan-12 12:33N 35°49' E 014°33'0 0.0
2017-Jan-12 11:33N 35°49' E 014°33'0 0.0
2017-Jan-12 10:28N 35°49' E 014°33'0 0.0
2017-Jan-12 09:30N 35°49' E 014°33'0 0.0
2017-Jan-12 08:27N 35°49' E 014°33'0 0.0
2017-Jan-12 07:32N 35°49' E 014°33'4 3.1
2017-Jan-12 06:19N 35°49' E 014°37'5 6.3
2017-Jan-12 05:31N 35°52' E 014°42'4 3.8
2017-Jan-12 04:33N 35°56' E 014°40'6 6.0
2017-Jan-12 03:33N 35°57' E 014°33'6 6.1
2017-Jan-12 02:33N 35°60' E 014°26'0 0.3
2017-Jan-12 01:32N 35°60' E 014°26'0 0.0
2017-Jan-12 00:32N 35°60' E 014°26'0 0.0
2017-Jan-11 23:32N 35°60' E 014°26'0 0.0
2017-Jan-11 22:32N 35°60' E 014°26'0 0.1
2017-Jan-11 21:32N 35°60' E 014°26'0 0.1
2017-Jan-11 20:32N 35°60' E 014°26'0 0.0
2017-Jan-11 19:33N 35°60' E 014°26'0 0.0
2017-Jan-11 18:34N 35°60' E 014°26'0 0.5
2017-Jan-11 17:33N 35°59' E 014°26'0 0.1
2017-Jan-11 16:34N 35°59' E 014°26'0 0.0
2017-Jan-11 15:33N 35°59' E 014°26'0 0.0
2017-Jan-11 14:33N 35°59' E 014°26'0 0.0
2017-Jan-11 13:33N 35°59' E 014°26'0 0.2
2017-Jan-11 12:33N 35°59' E 014°26'0 0.4
2017-Jan-11 11:34N 35°59' E 014°26'0 0.0
2017-Jan-11 10:33N 35°59' E 014°26'0 0.1
2017-Jan-11 09:33N 35°59' E 014°26'0 0.1
2017-Jan-11 08:33N 35°59' E 014°26'0 0.0
2017-Jan-11 07:33N 35°59' E 014°26'0 0.0
2017-Jan-11 06:33N 35°59' E 014°26'0 0.0
2017-Jan-11 05:33N 35°59' E 014°26'1 1.2
2017-Jan-11 04:34N 35°60' E 014°27'0 0.0
2017-Jan-11 03:33N 35°60' E 014°27'0 0.0
2017-Jan-11 02:33N 35°60' E 014°27'0 0.0
2017-Jan-11 01:33N 35°60' E 014°27'0 0.0
2017-Jan-11 00:33N 35°60' E 014°27'0 0.0
2017-Jan-10 23:33N 35°60' E 014°27'0 0.0
2017-Jan-10 22:33N 35°60' E 014°27'0 0.0
2017-Jan-10 21:33N 35°60' E 014°27'0 0.0
2017-Jan-10 20:33N 35°60' E 014°27'0 0.0
2017-Jan-10 19:33N 35°60' E 014°27'0 0.0
2017-Jan-10 18:33N 35°60' E 014°27'1 0.6
2017-Jan-10 17:33N 35°59' E 014°27'5 4.5
2017-Jan-10 16:33N 35°56' E 014°32'5 5.5
2017-Jan-10 15:33N 35°52' E 014°36'  
Track history (hours):
 
Tides and Currents Weather Stations Pressure Air Temp Water Temp Dewpoint Dewpoint Depression Visibility Wind Speed Wind Dir Waves Ship Positions

M/T Vemaoil Xi

Last reported at 2017-Jan-20 05:11 UTC. Time now 2017-Jan-20 05:55 UTC.
Position N 35°51' E 014°36'.

Length 105 m; draft 6 m.

Type: Tanker. MMSI: 215631000.

Date/timePositionNaut miles runAvg speedWind from/ knotsBaromVisibWave heightAir tempDewpointWater temp
2017-Jan-20 05:11N 35°51' E 014°36'0 0.0
2017-Jan-20 04:33N 35°51' E 014°36'0 0.0
2017-Jan-20 03:33N 35°51' E 014°36'0 0.0
2017-Jan-20 02:11N 35°51' E 014°36'0 0.0
2017-Jan-19 22:27N 35°50' E 014°36'0 0.0
2017-Jan-19 21:33N 35°50' E 014°36'1 0.8
2017-Jan-19 20:32N 35°51' E 014°36'5 0.4
2017-Jan-19 07:29N 35°54' E 014°31'4 3.9
2017-Jan-19 06:33N 35°58' E 014°30'6 6.0
2017-Jan-19 05:33N 35°60' E 014°24'0 0.0
2017-Jan-19 04:33N 35°60' E 014°24'0 0.1
2017-Jan-19 03:33N 35°60' E 014°24'0 0.0
2017-Jan-19 02:33N 35°60' E 014°24'0 0.1
2017-Jan-19 01:33N 35°60' E 014°24'0 0.0
2017-Jan-19 00:33N 35°60' E 014°24'0 0.1
2017-Jan-18 23:33N 35°60' E 014°24'0 0.0
2017-Jan-18 22:33N 35°60' E 014°24'2 1.6
2017-Jan-18 21:33N 36°00' E 014°26'0 0.0
2017-Jan-18 20:33N 36°00' E 014°26'0 0.0
2017-Jan-18 19:33N 36°00' E 014°26'0 0.0
2017-Jan-18 18:33N 36°00' E 014°26'0 0.0
2017-Jan-18 17:33N 36°00' E 014°26'0 0.0
2017-Jan-18 16:33N 36°00' E 014°26'0 0.0
2017-Jan-18 15:33N 36°00' E 014°26'0 0.0
2017-Jan-18 14:33N 36°00' E 014°26'1 1.4
2017-Jan-18 13:33N 35°60' E 014°24'0 0.0
2017-Jan-18 12:33N 35°60' E 014°24'0 0.0
2017-Jan-18 11:33N 35°60' E 014°24'0 0.0
2017-Jan-18 10:33N 35°60' E 014°24'0 0.0
2017-Jan-18 09:33N 35°60' E 014°24'0 0.0
2017-Jan-18 08:29N 35°60' E 014°24'0 0.0
2017-Jan-18 07:33N 35°60' E 014°24'1 1.5
2017-Jan-18 06:33N 36°01' E 014°25'0 0.0
2017-Jan-18 05:33N 36°01' E 014°25'0 0.0
2017-Jan-18 04:33N 36°01' E 014°25'0 0.0
2017-Jan-18 03:33N 36°01' E 014°25'0 0.0
2017-Jan-18 02:33N 36°01' E 014°25'0 0.0
2017-Jan-18 01:33N 36°01' E 014°25'0 0.0
2017-Jan-18 00:33N 36°01' E 014°25'0 0.0
2017-Jan-17 23:33N 36°01' E 014°25'0 0.0
2017-Jan-17 22:33N 36°01' E 014°25'0 0.0
2017-Jan-17 21:33N 36°01' E 014°25'0 0.1
2017-Jan-17 20:33N 36°01' E 014°25'4 4.2
2017-Jan-17 19:33N 35°59' E 014°29'5 0.4
2017-Jan-17 07:33N 35°54' E 014°33'5 5.4
2017-Jan-17 06:33N 35°59' E 014°28'3 3.0
2017-Jan-17 05:33N 36°00' E 014°26'0 0.0
2017-Jan-17 04:33N 36°00' E 014°26'0 0.0
2017-Jan-17 03:33N 36°00' E 014°26'0 0.5
2017-Jan-17 02:33N 36°01' E 014°25'0 0.0
2017-Jan-17 01:33N 36°01' E 014°25'0 0.0
2017-Jan-17 00:33N 36°01' E 014°25'0 0.0
2017-Jan-16 23:33N 36°01' E 014°25'0 0.1
2017-Jan-16 22:33N 36°01' E 014°25'0 0.0
2017-Jan-16 21:33N 36°01' E 014°25'0 0.0
2017-Jan-16 20:33N 36°01' E 014°25'4 4.3
2017-Jan-16 19:33N 35°58' E 014°30'5 5.2
2017-Jan-16 18:33N 35°55' E 014°35'5 5.3
2017-Jan-16 17:33N 35°50' E 014°36'0 0.0
2017-Jan-15 23:33N 35°49' E 014°35'0 0.0
2017-Jan-15 22:33N 35°49' E 014°35'1 1.1
2017-Jan-15 21:25N 35°51' E 014°36'0 0.0
2017-Jan-15 19:07N 35°51' E 014°36'0 0.0
2017-Jan-15 18:33N 35°51' E 014°36'0 0.0
2017-Jan-15 17:32N 35°51' E 014°36'0 0.0
2017-Jan-15 16:33N 35°51' E 014°36'0 0.0
2017-Jan-15 15:33N 35°51' E 014°36'0 0.0
2017-Jan-15 14:33N 35°51' E 014°36'0 0.1
2017-Jan-15 13:33N 35°51' E 014°36'0 0.0
2017-Jan-15 12:28N 35°51' E 014°36'2 2.6
2017-Jan-15 11:32N 35°52' E 014°39'0 0.1
2017-Jan-15 10:33N 35°52' E 014°39'0 0.0
2017-Jan-15 09:33N 35°52' E 014°39'6 0.8
2017-Jan-15 02:30N 35°49' E 014°32'3 0.7
2017-Jan-14 22:18N 35°50' E 014°36'1 0.8
2017-Jan-14 21:25N 35°50' E 014°36'0 0.0
2017-Jan-14 20:14N 35°50' E 014°36'0 0.0
2017-Jan-14 19:27N 35°50' E 014°36'0 0.0
2017-Jan-14 18:11N 35°50' E 014°36'0 0.0
2017-Jan-14 17:26N 35°50' E 014°36'0 0.0
2017-Jan-14 16:30N 35°50' E 014°36'0 0.0
2017-Jan-14 15:30N 35°50' E 014°36'0 0.0
2017-Jan-14 14:33N 35°50' E 014°36'0 0.0
2017-Jan-14 13:31N 35°50' E 014°36'0 0.0
2017-Jan-14 12:29N 35°50' E 014°36'3 0.2
2017-Jan-13 21:05N 35°49' E 014°33'3 3.8
2017-Jan-13 20:21N 35°49' E 014°36'4 5.2
2017-Jan-13 19:30N 35°51' E 014°41'5 5.0
2017-Jan-13 18:33N 35°53' E 014°47'1 1.4
2017-Jan-13 17:33N 35°54' E 014°48'0 0.0
2017-Jan-13 16:33N 35°54' E 014°48'0 0.0
2017-Jan-13 15:33N 35°54' E 014°48'0 0.0
2017-Jan-13 14:24N 35°54' E 014°48'0 0.0
2017-Jan-13 13:33N 35°54' E 014°48'0 0.0
2017-Jan-13 12:26N 35°54' E 014°48'0 0.1
2017-Jan-13 11:32N 35°54' E 014°48'6 5.9
2017-Jan-13 10:33N 35°56' E 014°42'7 7.2
2017-Jan-13 09:33N 35°59' E 014°34'6 5.9
2017-Jan-13 08:33N 35°59' E 014°26'0 0.1
2017-Jan-13 07:33N 35°59' E 014°26'0 0.0
2017-Jan-13 06:33N 35°59' E 014°26'0 0.0
2017-Jan-13 05:33N 35°59' E 014°26'0 0.1
2017-Jan-13 04:33N 35°59' E 014°26'0 0.0
2017-Jan-13 03:33N 35°59' E 014°26'0 0.0
2017-Jan-13 02:33N 35°59' E 014°26'1 0.8
2017-Jan-13 01:33N 35°59' E 014°27'6 6.1
2017-Jan-13 00:33N 35°56' E 014°34'6 5.7
2017-Jan-12 23:33N 35°50' E 014°36'1 1.0
2017-Jan-12 22:05N 35°49' E 014°35'0 0.0
2017-Jan-12 21:33N 35°49' E 014°35'0 0.0
2017-Jan-12 19:28N 35°49' E 014°35'2 0.7
2017-Jan-12 16:27N 35°49' E 014°32'0 0.4
2017-Jan-12 15:33N 35°49' E 014°33'0 0.0
2017-Jan-12 13:31N 35°49' E 014°33'0 0.0
2017-Jan-12 12:33N 35°49' E 014°33'0 0.0
2017-Jan-12 11:33N 35°49' E 014°33'0 0.0
2017-Jan-12 10:28N 35°49' E 014°33'0 0.0
2017-Jan-12 09:30N 35°49' E 014°33'0 0.0
2017-Jan-12 08:27N 35°49' E 014°33'0 0.0
2017-Jan-12 07:32N 35°49' E 014°33'4 3.1
2017-Jan-12 06:19N 35°49' E 014°37'5 6.3
2017-Jan-12 05:31N 35°52' E 014°42'4 3.8
2017-Jan-12 04:33N 35°56' E 014°40'6 6.0
2017-Jan-12 03:33N 35°57' E 014°33'6 6.1
2017-Jan-12 02:33N 35°60' E 014°26'0 0.3
2017-Jan-12 01:32N 35°60' E 014°26'0 0.0
2017-Jan-12 00:32N 35°60' E 014°26'0 0.0
2017-Jan-11 23:32N 35°60' E 014°26'0 0.0
2017-Jan-11 22:32N 35°60' E 014°26'0 0.1
2017-Jan-11 21:32N 35°60' E 014°26'0 0.1
2017-Jan-11 20:32N 35°60' E 014°26'0 0.0
2017-Jan-11 19:33N 35°60' E 014°26'0 0.0
2017-Jan-11 18:34N 35°60' E 014°26'0 0.5
2017-Jan-11 17:33N 35°59' E 014°26'0 0.1
2017-Jan-11 16:34N 35°59' E 014°26'0 0.0
2017-Jan-11 15:33N 35°59' E 014°26'0 0.0
2017-Jan-11 14:33N 35°59' E 014°26'0 0.0
2017-Jan-11 13:33N 35°59' E 014°26'0 0.2
2017-Jan-11 12:33N 35°59' E 014°26'0 0.4
2017-Jan-11 11:34N 35°59' E 014°26'0 0.0
2017-Jan-11 10:33N 35°59' E 014°26'0 0.1
2017-Jan-11 09:33N 35°59' E 014°26'0 0.1
2017-Jan-11 08:33N 35°59' E 014°26'0 0.0
2017-Jan-11 07:33N 35°59' E 014°26'0 0.0
2017-Jan-11 06:33N 35°59' E 014°26'0 0.0
2017-Jan-11 05:33N 35°59' E 014°26'1 1.2
2017-Jan-11 04:34N 35°60' E 014°27'0 0.0
2017-Jan-11 03:33N 35°60' E 014°27'0 0.0
2017-Jan-11 02:33N 35°60' E 014°27'0 0.0
2017-Jan-11 01:33N 35°60' E 014°27'0 0.0
2017-Jan-11 00:33N 35°60' E 014°27'0 0.0
2017-Jan-10 23:33N 35°60' E 014°27'0 0.0
2017-Jan-10 22:33N 35°60' E 014°27'0 0.0
2017-Jan-10 21:33N 35°60' E 014°27'0 0.0
2017-Jan-10 20:33N 35°60' E 014°27'0 0.0
2017-Jan-10 19:33N 35°60' E 014°27'0 0.0
2017-Jan-10 18:33N 35°60' E 014°27'1 0.6
2017-Jan-10 17:33N 35°59' E 014°27'5 4.5
2017-Jan-10 16:33N 35°56' E 014°32'5 5.5
2017-Jan-10 15:33N 35°52' E 014°36'  

Dump ship's entire track history